Time;durP1;ratioP1;P1;durP2;ratioP2;P2;SDS_P1;SDS_P2;PMS_P1;PMS_P2;Temp;Humidity;BMP_temperature;BMP_pressure;BME280_temperature;BME280_humidity;BME280_pressure;Samples;Min_cycle;Max_cycle;Signal;HPM_P1;HPM_P2
2023/12/03 00:00:20;;;;;;;0.00;0.00;;;4.00;73.20;;;;;;5047219;28;20204;-35
2023/12/03 00:02:47;;;;;;;0.00;0.00;;;3.90;73.10;;;;;;5045469;28;20258;-35
2023/12/03 00:05:15;;;;;;;0.00;0.00;;;4.00;73.30;;;;;;5045136;28;20596;-35
2023/12/03 00:07:43;;;;;;;0.00;0.00;;;4.00;73.20;;;;;;5049350;28;20573;-35
2023/12/03 00:10:11;;;;;;;0.00;0.00;;;3.90;73.10;;;;;;5047809;28;20873;-35
2023/12/03 00:12:40;;;;;;;0.00;0.00;;;3.90;73.10;;;;;;5048111;28;20200;-35
2023/12/03 00:15:10;;;;;;;0.00;0.00;;;3.90;73.10;;;;;;5048367;28;20656;-35
2023/12/03 00:17:37;;;;;;;0.00;0.00;;;3.90;73.10;;;;;;5047876;28;20210;-35
2023/12/03 00:20:05;;;;;;;0.00;0.00;;;3.90;73.10;;;;;;5048631;28;20655;-35
2023/12/03 00:22:33;;;;;;;0.00;0.00;;;3.90;73.10;;;;;;5046895;28;20208;-35
2023/12/03 00:25:00;;;;;;;0.00;0.00;;;3.90;73.10;;;;;;5048196;28;20251;-35
2023/12/03 00:27:32;;;;;;;0.00;0.00;;;3.80;73.00;;;;;;5047705;28;20192;-35
2023/12/03 00:30:04;;;;;;;0.00;0.00;;;3.80;72.90;;;;;;5046694;28;20192;-35
2023/12/03 00:32:32;;;;;;;0.00;0.00;;;3.80;73.00;;;;;;5045116;28;20203;-35
2023/12/03 00:35:01;;;;;;;0.00;0.00;;;3.80;73.10;;;;;;5044673;28;20220;-35
2023/12/03 00:37:31;;;;;;;0.00;0.00;;;3.80;73.10;;;;;;5044988;28;20211;-35
2023/12/03 00:39:58;;;;;;;0.00;0.00;;;3.80;73.10;;;;;;5044874;28;20200;-35
2023/12/03 00:42:25;;;;;;;0.00;0.00;;;3.70;73.00;;;;;;5045048;28;20757;-34
2023/12/03 00:44:57;;;;;;;0.00;0.00;;;3.70;73.10;;;;;;5044683;28;20323;-34
2023/12/03 00:47:24;;;;;;;0.00;0.00;;;3.70;73.00;;;;;;5044482;28;20215;-35
2023/12/03 00:49:52;;;;;;;0.00;0.00;;;3.70;73.00;;;;;;5044201;28;20216;-35
2023/12/03 00:52:21;;;;;;;0.00;0.00;;;3.70;73.10;;;;;;5044221;28;20676;-35
2023/12/03 00:54:52;;;;;;;0.00;0.00;;;3.70;73.10;;;;;;5044484;28;20254;-34
2023/12/03 00:57:19;;;;;;;0.00;0.00;;;3.70;73.10;;;;;;5043765;28;20244;-35
2023/12/03 00:59:49;;;;;;;0.00;0.00;;;3.70;73.10;;;;;;5045748;28;20196;-35
2023/12/03 01:02:18;;;;;;;0.00;0.00;;;3.60;73.10;;;;;;5049223;28;20526;-35
2023/12/03 01:04:48;;;;;;;0.00;0.00;;;3.60;73.10;;;;;;5050972;28;20231;-35
2023/12/03 01:07:15;;;;;;;0.00;0.00;;;3.60;73.10;;;;;;5048617;28;20196;-35
2023/12/03 01:09:45;;;;;;;0.00;0.00;;;3.60;73.00;;;;;;5047318;28;20670;-35
2023/12/03 01:12:14;;;;;;;0.00;0.00;;;3.60;73.10;;;;;;5047607;28;20204;-35
2023/12/03 01:14:44;;;;;;;0.00;0.00;;;3.60;73.10;;;;;;5045650;28;20299;-35
2023/12/03 01:17:14;;;;;;;0.00;0.00;;;3.60;73.10;;;;;;5028635;28;20582;-34
2023/12/03 01:19:43;;;;;;;0.00;0.00;;;3.50;73.00;;;;;;5045642;28;20219;-35
2023/12/03 01:22:13;;;;;;;0.00;0.00;;;3.60;73.10;;;;;;5043914;28;20208;-35
2023/12/03 01:24:45;;;;;;;0.00;0.00;;;3.60;73.10;;;;;;5027924;28;20259;-35
2023/12/03 01:27:15;;;;;;;0.00;0.00;;;3.50;73.00;;;;;;5044465;28;20201;-35
2023/12/03 01:29:45;;;;;;;0.00;0.00;;;3.50;73.00;;;;;;5045508;28;20230;-35
2023/12/03 01:32:13;;;;;;;0.00;0.00;;;3.50;73.00;;;;;;5045770;28;20196;-35
2023/12/03 01:34:40;;;;;;;0.00;0.00;;;3.50;73.10;;;;;;5043829;28;20211;-35
2023/12/03 01:37:07;;;;;;;0.00;0.00;;;3.50;73.00;;;;;;5043897;28;20315;-35
2023/12/03 01:39:34;;;;;;;0.00;0.00;;;3.50;73.00;;;;;;5045847;28;20203;-36
2023/12/03 01:42:06;;;;;;;0.00;0.00;;;3.50;73.00;;;;;;5044264;28;20594;-34
2023/12/03 01:44:34;;;;;;;0.00;0.00;;;3.40;73.00;;;;;;5043599;28;20228;-34
2023/12/03 01:47:03;;;;;;;0.00;0.00;;;3.40;72.90;;;;;;5043646;28;20275;-34
2023/12/03 01:49:32;;;;;;;0.00;0.00;;;3.40;72.90;;;;;;5045191;28;20213;-35
2023/12/03 01:52:02;;;;;;;0.00;0.00;;;3.40;72.90;;;;;;5044925;28;20196;-36
2023/12/03 01:54:35;;;;;;;0.00;0.00;;;3.40;72.90;;;;;;5045127;28;20210;-36
2023/12/03 01:57:05;;;;;;;0.00;0.00;;;3.40;73.00;;;;;;5053263;28;20687;-33
2023/12/03 01:59:33;;;;;;;0.00;0.00;;;3.40;73.00;;;;;;5049094;28;20216;-34
2023/12/03 02:02:01;;;;;;;0.00;0.00;;;3.30;72.90;;;;;;5051248;28;20246;-34
2023/12/03 02:04:30;;;;;;;0.00;0.00;;;3.30;72.90;;;;;;5054957;28;20269;-34
2023/12/03 02:06:57;;;;;;;0.00;0.00;;;3.30;72.90;;;;;;5058794;28;20310;-34
2023/12/03 02:09:25;;;;;;;0.00;0.00;;;3.30;72.80;;;;;;5057498;28;20674;-34
2023/12/03 02:11:52;;;;;;;0.00;0.00;;;3.30;72.80;;;;;;5045905;28;20188;-34
2023/12/03 02:14:21;;;;;;;0.00;0.00;;;3.30;72.80;;;;;;5063182;28;20693;-34
2023/12/03 02:16:53;;;;;;;0.00;0.00;;;3.20;72.90;;;;;;5049106;28;20280;-34
2023/12/03 02:19:23;;;;;;;0.00;0.00;;;3.20;72.80;;;;;;5067398;28;20254;-34
2023/12/03 02:21:55;;;;;;;0.00;0.00;;;3.20;72.80;;;;;;5068669;28;20207;-34
2023/12/03 02:24:22;;;;;;;0.00;0.00;;;3.20;72.90;;;;;;5070105;28;20336;-34
2023/12/03 02:26:52;;;;;;;0.00;0.00;;;3.20;72.90;;;;;;5067785;28;20569;-34
2023/12/03 02:29:21;;;;;;;0.00;0.00;;;3.20;72.90;;;;;;5068811;28;20207;-34
2023/12/03 02:31:51;;;;;;;0.00;0.00;;;3.20;72.90;;;;;;5068481;28;20211;-34
2023/12/03 02:34:20;;;;;;;0.00;0.00;;;3.20;73.00;;;;;;5068471;28;20203;-34
2023/12/03 02:36:50;;;;;;;0.00;0.00;;;3.20;73.00;;;;;;5068392;28;20326;-34
2023/12/03 02:39:17;;;;;;;0.00;0.00;;;3.20;72.90;;;;;;5050712;28;20726;-34
2023/12/03 02:41:44;;;;;;;0.00;0.00;;;3.20;73.00;;;;;;5065950;28;20775;-34
2023/12/03 02:44:14;;;;;;;0.00;0.00;;;3.10;72.90;;;;;;5066717;28;20773;-34
2023/12/03 02:46:43;;;;;;;0.00;0.00;;;3.20;73.70;;;;;;5068181;28;20554;-34
2023/12/03 02:49:10;;;;;;;0.00;0.00;;;3.10;73.00;;;;;;5066767;28;20211;-34
2023/12/03 02:51:40;;;;;;;0.00;0.00;;;3.10;72.90;;;;;;5053947;28;20197;-33
2023/12/03 02:54:10;;;;;;;0.00;0.00;;;3.10;72.90;;;;;;5053481;28;20200;-34
2023/12/03 02:56:37;;;;;;;0.00;0.00;;;3.10;72.90;;;;;;5048846;28;20589;-34
2023/12/03 02:59:04;;;;;;;0.00;0.00;;;3.10;72.90;;;;;;5049746;28;20208;-34
2023/12/03 03:01:32;;;;;;;0.00;0.00;;;3.10;72.90;;;;;;5049255;28;20200;-34
2023/12/03 03:03:59;;;;;;;0.00;0.00;;;3.10;72.90;;;;;;5031911;28;20200;-34
2023/12/03 03:06:27;;;;;;;0.00;0.00;;;3.10;72.90;;;;;;5049939;28;20909;-34
2023/12/03 03:08:56;;;;;;;0.00;0.00;;;3.10;72.90;;;;;;5048323;28;20951;-34
2023/12/03 03:11:23;;;;;;;0.00;0.00;;;3.10;72.90;;;;;;5047265;28;20207;-34
2023/12/03 03:13:53;;;;;;;0.00;0.00;;;3.10;72.90;;;;;;5046697;28;20197;-34
2023/12/03 03:16:26;;;;;;;0.00;0.00;;;3.00;72.80;;;;;;5048205;28;20304;-34
2023/12/03 03:18:54;;;;;;;0.00;0.00;;;3.00;72.80;;;;;;5048520;28;20211;-34
2023/12/03 03:21:24;;;;;;;0.00;0.00;;;3.00;72.80;;;;;;5049456;28;20296;-34
2023/12/03 03:23:53;;;;;;;0.00;0.00;;;3.00;72.80;;;;;;5047851;28;20204;-34
2023/12/03 03:26:20;;;;;;;0.00;0.00;;;3.00;72.80;;;;;;5045266;28;20239;-34
2023/12/03 03:28:50;;;;;;;0.00;0.00;;;3.00;72.90;;;;;;5047824;28;20885;-34
2023/12/03 03:31:17;;;;;;;0.00;0.00;;;3.00;72.90;;;;;;5045797;28;20196;-34
2023/12/03 03:33:49;;;;;;;0.00;0.00;;;3.00;72.80;;;;;;5048134;28;20200;-34
2023/12/03 03:36:17;;;;;;;0.00;0.00;;;3.00;72.90;;;;;;5049184;28;20204;-34
2023/12/03 03:38:44;;;;;;;0.00;0.00;;;3.00;72.90;;;;;;5049249;28;20229;-34
2023/12/03 03:41:11;;;;;;;0.00;0.00;;;2.90;72.80;;;;;;5047032;28;20629;-34
2023/12/03 03:43:41;;;;;;;0.00;0.00;;;2.90;72.80;;;;;;5049193;28;20211;-37
2023/12/03 03:46:11;;;;;;;0.00;0.00;;;2.90;72.80;;;;;;5060331;28;20231;-34
2023/12/03 03:48:39;;;;;;;0.00;0.00;;;2.90;72.80;;;;;;5070404;28;20203;-34
2023/12/03 03:51:07;;;;;;;0.00;0.00;;;2.90;72.70;;;;;;5069706;28;20271;-35
2023/12/03 03:53:34;;;;;;;0.00;0.00;;;2.90;72.70;;;;;;5068565;28;20203;-34
2023/12/03 03:56:11;;;;;;;0.00;0.00;;;2.90;72.70;;;;;;5067574;28;20254;-34
2023/12/03 03:58:46;;;;;;;0.00;0.00;;;2.90;72.80;;;;;;5067455;28;20604;-34
2023/12/03 04:01:16;;;;;;;0.00;0.00;;;2.90;72.70;;;;;;5033643;28;20215;-34
2023/12/03 04:03:44;;;;;;;0.00;0.00;;;2.90;72.80;;;;;;5066842;28;20199;-34
2023/12/03 04:06:11;;;;;;;0.00;0.00;;;2.80;72.80;;;;;;5066633;28;20815;-34
2023/12/03 04:08:43;;;;;;;0.00;0.00;;;2.90;72.90;;;;;;5066627;28;20881;-34
2023/12/03 04:11:15;;;;;;;0.00;0.00;;;2.80;72.80;;;;;;5065284;28;20405;-34
2023/12/03 04:13:42;;;;;;;0.00;0.00;;;2.80;72.70;;;;;;5065077;28;20210;-34
2023/12/03 04:16:21;;;;;;;0.00;0.00;;;2.80;72.70;;;;;;5048500;28;20207;-34
2023/12/03 04:18:49;;;;;;;0.00;0.00;;;2.80;72.70;;;;;;5065353;28;20203;-34
2023/12/03 04:21:16;;;;;;;0.00;0.00;;;2.80;72.70;;;;;;5063128;28;20212;-34
2023/12/03 04:23:43;;;;;;;0.00;0.00;;;2.80;72.70;;;;;;5066372;28;20212;-34
2023/12/03 04:26:12;;;;;;;0.00;0.00;;;2.70;72.70;;;;;;5065647;28;20223;-34
2023/12/03 04:28:42;;;;;;;0.00;0.00;;;2.70;72.70;;;;;;5066436;28;20260;-34
2023/12/03 04:31:26;;;;;;;0.00;0.00;;;2.70;72.70;;;;;;5065087;28;20196;-34
2023/12/03 04:33:56;;;;;;;0.00;0.00;;;2.70;72.80;;;;;;5066080;28;20204;-34
2023/12/03 04:36:25;;;;;;;0.00;0.00;;;2.70;72.70;;;;;;5064622;28;20294;-36
2023/12/03 04:38:53;;;;;;;0.00;0.00;;;2.70;72.80;;;;;;5063548;28;20714;-34
2023/12/03 04:41:21;;;;;;;0.00;0.00;;;2.70;72.80;;;;;;5029669;28;20212;-33
2023/12/03 04:43:51;;;;;;;0.00;0.00;;;2.70;72.80;;;;;;5047263;28;20215;-34
2023/12/03 04:46:18;;;;;;;0.00;0.00;;;2.70;72.80;;;;;;5048829;28;20228;-34
2023/12/03 04:48:50;;;;;;;0.00;0.00;;;2.70;72.80;;;;;;5049089;28;20533;-33
2023/12/03 04:51:17;;;;;;;0.00;0.00;;;2.70;72.80;;;;;;5048747;28;20543;-34
2023/12/03 04:53:47;;;;;;;0.00;0.00;;;2.70;72.90;;;;;;5047192;28;20295;-34
2023/12/03 04:56:14;;;;;;;0.00;0.00;;;2.70;72.80;;;;;;5045218;28;20303;-35
2023/12/03 04:58:42;;;;;;;0.00;0.00;;;2.70;72.80;;;;;;5047420;28;20218;-34
2023/12/03 05:01:09;;;;;;;0.00;0.00;;;2.70;72.80;;;;;;5047274;28;20200;-34
2023/12/03 05:03:38;;;;;;;0.00;0.00;;;2.70;72.80;;;;;;5045910;28;20287;-34
2023/12/03 05:06:09;;;;;;;0.00;0.00;;;2.70;72.80;;;;;;5047061;28;20241;-34
2023/12/03 05:08:38;;;;;;;0.00;0.00;;;2.70;73.60;;;;;;5045952;28;20200;-34
2023/12/03 05:11:06;;;;;;;0.00;0.00;;;2.70;72.80;;;;;;5045283;28;20196;-35
2023/12/03 05:13:34;;;;;;;0.00;0.00;;;2.70;72.80;;;;;;5045544;28;20266;-33
2023/12/03 05:16:02;;;;;;;0.00;0.00;;;2.70;72.80;;;;;;5043933;28;20627;-34
2023/12/03 05:18:30;;;;;;;0.00;0.00;;;2.70;72.80;;;;;;5046674;28;20213;-34
2023/12/03 05:21:01;;;;;;;0.00;0.00;;;2.70;72.80;;;;;;5045867;28;20243;-34
2023/12/03 05:23:29;;;;;;;0.00;0.00;;;2.70;72.80;;;;;;5045948;28;20209;-34
2023/12/03 05:25:58;;;;;;;0.00;0.00;;;2.70;72.80;;;;;;5060669;28;20227;-34
2023/12/03 05:28:26;;;;;;;0.00;0.00;;;2.70;72.70;;;;;;5045562;28;20816;-34
2023/12/03 05:30:55;;;;;;;0.00;0.00;;;2.70;72.70;;;;;;5043411;28;20208;-34
2023/12/03 05:33:23;;;;;;;0.00;0.00;;;2.70;72.80;;;;;;5029775;28;20219;-34
2023/12/03 05:35:55;;;;;;;0.00;0.00;;;2.70;72.70;;;;;;5048235;28;20613;-34
2023/12/03 05:38:22;;;;;;;0.00;0.00;;;2.70;72.70;;;;;;5048741;28;20208;-34
2023/12/03 05:40:49;;;;;;;0.00;0.00;;;2.70;72.70;;;;;;5047435;28;20328;-34
2023/12/03 05:43:16;;;;;;;0.00;0.00;;;2.70;72.70;;;;;;5046896;28;20204;-34
2023/12/03 05:45:46;;;;;;;0.00;0.00;;;2.70;72.70;;;;;;5028634;28;20216;-34
2023/12/03 05:48:13;;;;;;;0.00;0.00;;;2.70;72.70;;;;;;5046830;28;20227;-34
2023/12/03 05:50:41;;;;;;;0.00;0.00;;;2.70;72.80;;;;;;5046312;28;20200;-34
2023/12/03 05:53:08;;;;;;;0.00;0.00;;;2.70;72.80;;;;;;5043307;28;20242;-34
2023/12/03 05:55:35;;;;;;;0.00;0.00;;;2.70;72.80;;;;;;5047114;28;20298;-34
2023/12/03 05:58:03;;;;;;;0.00;0.00;;;2.70;72.80;;;;;;5046668;28;20215;-34
2023/12/03 06:00:30;;;;;;;0.00;0.00;;;2.70;72.80;;;;;;5047968;28;20546;-34
2023/12/03 06:03:05;;;;;;;0.00;0.00;;;2.70;72.80;;;;;;5052971;28;20230;-34
2023/12/03 06:05:33;;;;;;;0.00;0.00;;;2.70;72.90;;;;;;5063980;28;20242;-34
2023/12/03 06:08:00;;;;;;;0.00;0.00;;;2.70;72.80;;;;;;5058995;28;20647;-34
2023/12/03 06:10:27;;;;;;;0.00;0.00;;;2.70;72.90;;;;;;5069256;28;20199;-35
2023/12/03 06:12:55;;;;;;;0.00;0.00;;;2.70;72.90;;;;;;5070491;28;20207;-34
2023/12/03 06:15:25;;;;;;;0.00;0.00;;;2.70;72.80;;;;;;5054944;28;20227;-34
2023/12/03 06:17:53;;;;;;;0.00;0.00;;;2.70;72.90;;;;;;5067632;28;20200;-34
2023/12/03 06:20:20;;;;;;;0.00;0.00;;;2.70;72.80;;;;;;5069004;28;20210;-34
2023/12/03 06:22:50;;;;;;;0.00;0.00;;;2.70;72.90;;;;;;5066583;28;20208;-34
2023/12/03 06:25:19;;;;;;;0.00;0.00;;;2.70;72.80;;;;;;5066031;28;20790;-34
2023/12/03 06:27:48;;;;;;;0.00;0.00;;;2.70;72.80;;;;;;5060618;28;20196;-34
2023/12/03 06:30:17;;;;;;;0.00;0.00;;;2.70;72.80;;;;;;5065825;28;20294;-35
2023/12/03 06:32:44;;;;;;;0.00;0.00;;;2.70;72.80;;;;;;5053337;28;20220;-34
2023/12/03 06:35:15;;;;;;;0.00;0.00;;;2.70;72.80;;;;;;5051857;28;20235;-34
2023/12/03 06:37:45;;;;;;;0.00;0.00;;;2.70;72.80;;;;;;5050896;28;20202;-34
2023/12/03 06:40:14;;;;;;;0.00;0.00;;;2.70;72.80;;;;;;5048179;28;20763;-34
2023/12/03 06:42:48;;;;;;;0.00;0.00;;;2.70;72.80;;;;;;5048150;28;20207;-34
2023/12/03 06:45:15;;;;;;;0.00;0.00;;;2.70;72.80;;;;;;5048473;28;20277;-34
2023/12/03 06:47:43;;;;;;;0.00;0.00;;;2.70;72.70;;;;;;5049409;28;20462;-34
2023/12/03 06:50:12;;;;;;;0.00;0.00;;;2.70;72.70;;;;;;5049682;28;20287;-35
2023/12/03 06:52:42;;;;;;;0.00;0.00;;;2.70;72.70;;;;;;5056139;28;20230;-34
2023/12/03 06:55:16;;;;;;;0.00;0.00;;;2.70;72.70;;;;;;5050595;28;20207;-34
2023/12/03 06:57:45;;;;;;;0.00;0.00;;;2.70;72.70;;;;;;5050197;28;20463;-35
2023/12/03 07:00:19;;;;;;;0.00;0.00;;;2.70;72.70;;;;;;5052171;28;20245;-34
2023/12/03 07:02:46;;;;;;;0.00;0.00;;;2.70;72.70;;;;;;5064465;28;20332;-35
2023/12/03 07:05:18;;;;;;;0.00;0.00;;;2.70;72.70;;;;;;5053278;28;20227;-34
2023/12/03 07:07:50;;;;;;;0.00;0.00;;;2.70;72.70;;;;;;5058854;28;20654;-34
2023/12/03 07:10:19;;;;;;;0.00;0.00;;;2.70;72.80;;;;;;5064460;28;21473;-35
2023/12/03 07:12:51;;;;;;;0.00;0.00;;;2.70;72.80;;;;;;5067938;28;20290;-34
2023/12/03 07:15:19;;;;;;;0.00;0.00;;;2.70;72.70;;;;;;5067983;28;20207;-34
2023/12/03 07:17:46;;;;;;;0.00;0.00;;;2.70;72.70;;;;;;5069066;28;20211;-34
2023/12/03 07:20:18;;;;;;;0.00;0.00;;;2.70;72.80;;;;;;5036651;28;20212;-34
2023/12/03 07:22:46;;;;;;;0.00;0.00;;;2.70;72.80;;;;;;5056112;28;20196;-36
2023/12/03 07:25:13;;;;;;;0.00;0.00;;;2.80;72.80;;;;;;5061198;28;20204;-34
2023/12/03 07:27:40;;;;;;;0.00;0.00;;;2.80;72.80;;;;;;5061711;28;20675;-34
2023/12/03 07:30:08;;;;;;;0.00;0.00;;;2.80;72.80;;;;;;5066262;28;20207;-34
2023/12/03 07:32:37;;;;;;;0.00;0.00;;;2.80;72.80;;;;;;5053955;28;20306;-34
2023/12/03 07:35:05;;;;;;;0.00;0.00;;;2.80;72.80;;;;;;5052890;28;20203;-34
2023/12/03 07:37:34;;;;;;;0.00;0.00;;;2.80;72.80;;;;;;5058568;28;20212;-34
2023/12/03 07:40:04;;;;;;;0.00;0.00;;;2.80;72.80;;;;;;5064877;28;20553;-34
2023/12/03 07:42:31;;;;;;;0.00;0.00;;;2.80;72.80;;;;;;5051304;28;20317;-34
2023/12/03 07:45:03;;;;;;;0.00;0.00;;;2.80;72.80;;;;;;5049614;28;20216;-34
2023/12/03 07:47:33;;;;;;;0.00;0.00;;;2.80;72.80;;;;;;5065354;28;20223;-34
2023/12/03 07:50:00;;;;;;;0.00;0.00;;;2.80;72.80;;;;;;5079973;28;20754;-34
2023/12/03 07:52:31;;;;;;;0.00;0.00;;;2.80;72.80;;;;;;5082731;28;20208;-34
2023/12/03 07:55:00;;;;;;;0.00;0.00;;;2.80;72.80;;;;;;5048412;28;20555;-34
2023/12/03 07:57:30;;;;;;;0.00;0.00;;;2.80;72.80;;;;;;5049934;28;20231;-34
2023/12/03 07:59:58;;;;;;;0.00;0.00;;;2.80;72.80;;;;;;5048820;28;20200;-34
2023/12/03 08:02:27;;;;;;;0.00;0.00;;;2.80;72.80;;;;;;5066538;28;20315;-34
2023/12/03 08:04:54;;;;;;;0.00;0.00;;;2.90;72.90;;;;;;5063478;28;20287;-33
2023/12/03 08:07:26;;;;;;;0.00;0.00;;;2.90;72.80;;;;;;5050082;28;20778;-34
2023/12/03 08:09:54;;;;;;;0.00;0.00;;;2.90;72.90;;;;;;5055360;28;20208;-34
2023/12/03 08:12:22;;;;;;;0.00;0.00;;;2.90;72.80;;;;;;5047457;28;20211;-34
2023/12/03 08:14:49;;;;;;;0.00;0.00;;;2.90;72.90;;;;;;5064973;28;20197;-34
2023/12/03 08:17:16;;;;;;;0.00;0.00;;;2.90;72.80;;;;;;5054453;28;20200;-34
2023/12/03 08:19:51;;;;;;;0.00;0.00;;;2.90;72.90;;;;;;5048833;28;20309;-34
2023/12/03 08:22:22;;;;;;;0.00;0.00;;;2.90;72.90;;;;;;5064494;28;20188;-34
2023/12/03 08:24:52;;;;;;;0.00;0.00;;;2.90;72.80;;;;;;5061124;28;20223;-34
2023/12/03 08:27:20;;;;;;;0.00;0.00;;;3.00;72.90;;;;;;5068743;28;20239;-34
2023/12/03 08:29:49;;;;;;;0.00;0.00;;;3.00;72.90;;;;;;5059606;28;20303;-34
2023/12/03 08:32:19;;;;;;;0.00;0.00;;;3.00;72.90;;;;;;5082511;28;20209;-34
2023/12/03 08:34:50;;;;;;;0.00;0.00;;;3.00;72.90;;;;;;5068987;28;20203;-34
2023/12/03 08:37:22;;;;;;;0.00;0.00;;;3.00;72.80;;;;;;5058072;28;20196;-34
2023/12/03 08:39:52;;;;;;;0.00;0.00;;;3.00;72.90;;;;;;5065309;28;20273;-34
2023/12/03 08:42:19;;;;;;;0.00;0.00;;;3.10;73.00;;;;;;5051056;28;20274;-34
2023/12/03 08:44:47;;;;;;;0.00;0.00;;;3.10;73.00;;;;;;5058763;28;20204;-34
2023/12/03 08:47:20;;;;;;;0.00;0.00;;;3.10;73.00;;;;;;5057911;28;20227;-35
2023/12/03 08:49:49;;;;;;;0.00;0.00;;;3.10;72.90;;;;;;5047119;28;20204;-34
2023/12/03 08:52:16;;;;;;;0.00;0.00;;;3.10;73.00;;;;;;5066791;28;20208;-34
2023/12/03 08:54:44;;;;;;;0.00;0.00;;;3.20;73.00;;;;;;5063760;28;20684;-34
2023/12/03 08:57:11;;;;;;;0.00;0.00;;;3.20;73.10;;;;;;5050222;28;20199;-34
2023/12/03 08:59:43;;;;;;;0.00;0.00;;;3.20;73.00;;;;;;5054124;28;20213;-34
2023/12/03 09:02:10;;;;;;;0.00;0.00;;;3.20;73.00;;;;;;5056678;28;20323;-34
2023/12/03 09:04:38;;;;;;;0.00;0.00;;;3.20;73.00;;;;;;5058528;28;20203;-34
2023/12/03 09:07:08;;;;;;;0.00;0.00;;;3.30;73.20;;;;;;5065975;28;20318;-34
2023/12/03 09:09:35;;;;;;;0.00;0.00;;;3.30;73.10;;;;;;5060893;28;20203;-35
2023/12/03 09:12:03;;;;;;;0.00;0.00;;;3.30;73.10;;;;;;5052024;28;20986;-34
2023/12/03 09:14:32;;;;;;;0.00;0.00;;;3.30;73.10;;;;;;5060028;28;20550;-34
2023/12/03 09:17:06;;;;;;;0.00;0.00;;;3.40;73.20;;;;;;5049865;28;20291;-34
2023/12/03 09:19:35;;;;;;;0.00;0.00;;;3.40;73.10;;;;;;5053600;28;20597;-35
2023/12/03 09:22:02;;;;;;;0.00;0.00;;;3.40;73.10;;;;;;5064217;28;20299;-35
2023/12/03 09:24:33;;;;;;;0.00;0.00;;;3.40;73.10;;;;;;5054179;28;20204;-34
2023/12/03 09:27:01;;;;;;;0.00;0.00;;;3.50;73.20;;;;;;5065516;28;20220;-34
2023/12/03 09:29:30;;;;;;;0.00;0.00;;;3.50;73.20;;;;;;5059866;28;20195;-34
2023/12/03 09:32:00;;;;;;;0.00;0.00;;;3.50;73.20;;;;;;5048035;28;20192;-34
2023/12/03 09:34:34;;;;;;;0.00;0.00;;;3.50;73.30;;;;;;5052009;28;20207;-34
2023/12/03 09:37:02;;;;;;;0.00;0.00;;;3.60;73.20;;;;;;5067409;28;20211;-35
2023/12/03 09:39:31;;;;;;;0.00;0.00;;;3.60;73.20;;;;;;5065295;28;20727;-34
2023/12/03 09:42:01;;;;;;;0.00;0.00;;;3.60;73.10;;;;;;5050909;28;20213;-34
2023/12/03 09:44:51;;;;;;;0.00;0.00;;;3.60;73.10;;;;;;5051455;28;20287;-35
2023/12/03 09:47:22;;;;;;;0.00;0.00;;;3.70;73.30;;;;;;5057285;28;20869;-34
2023/12/03 09:49:55;;;;;;;0.00;0.00;;;3.70;73.20;;;;;;5056394;28;20198;-34
2023/12/03 09:52:28;;;;;;;0.00;0.00;;;3.70;73.20;;;;;;5057137;28;20188;-34
2023/12/03 09:55:00;;;;;;;0.00;0.00;;;3.70;73.30;;;;;;5064451;28;20231;-34
2023/12/03 09:57:38;;;;;;;0.00;0.00;;;3.80;73.30;;;;;;5058891;28;20203;-35
2023/12/03 10:00:09;;;;;;;0.00;0.00;;;3.80;73.40;;;;;;5063481;28;20951;-34
2023/12/03 10:02:42;;;;;;;0.00;0.00;;;3.80;73.30;;;;;;5057684;28;20235;-34
2023/12/03 10:05:12;;;;;;;0.00;0.00;;;3.80;73.30;;;;;;5060298;28;20924;-34
2023/12/03 10:07:46;;;;;;;0.00;0.00;;;3.90;73.30;;;;;;5053006;28;20403;-34
2023/12/03 10:10:21;;;;;;;0.00;0.00;;;3.90;73.30;;;;;;5046853;28;20200;-34
2023/12/03 10:12:52;;;;;;;0.00;0.00;;;3.90;73.30;;;;;;5064330;28;20219;-34
2023/12/03 10:15:20;;;;;;;0.00;0.00;;;3.90;73.20;;;;;;5061961;28;20277;-34
2023/12/03 10:17:49;;;;;;;0.00;0.00;;;3.90;73.20;;;;;;5056890;28;20234;-34
2023/12/03 10:20:24;;;;;;;0.00;0.00;;;4.00;73.20;;;;;;5055369;28;21002;-35
2023/12/03 10:22:59;;;;;;;0.00;0.00;;;4.00;73.30;;;;;;5058288;28;20208;-34
2023/12/03 10:25:36;;;;;;;0.00;0.00;;;4.00;73.30;;;;;;5047885;28;20214;-35
2023/12/03 10:28:09;;;;;;;0.00;0.00;;;4.00;73.30;;;;;;5053959;28;20222;-35
2023/12/03 10:30:37;;;;;;;0.00;0.00;;;4.10;73.30;;;;;;5064958;28;20257;-35
2023/12/03 10:33:11;;;;;;;0.00;0.00;;;4.10;73.30;;;;;;5064211;28;20203;-35
2023/12/03 10:35:41;;;;;;;0.00;0.00;;;4.10;73.20;;;;;;5065510;28;20673;-35
2023/12/03 10:38:18;;;;;;;0.00;0.00;;;4.10;73.20;;;;;;5066248;28;20211;-34
2023/12/03 10:40:48;;;;;;;0.00;0.00;;;4.20;73.30;;;;;;5063676;28;20208;-35
2023/12/03 10:43:22;;;;;;;0.00;0.00;;;4.20;73.30;;;;;;5049349;28;20289;-35
2023/12/03 10:45:53;;;;;;;0.00;0.00;;;4.20;73.30;;;;;;5055158;28;20210;-34
2023/12/03 10:48:22;;;;;;;0.00;0.00;;;4.20;73.30;;;;;;5069245;28;20226;-34
2023/12/03 10:50:52;;;;;;;0.00;0.00;;;4.20;73.30;;;;;;5063373;28;20208;-35
2023/12/03 10:53:25;;;;;;;0.00;0.00;;;4.30;73.30;;;;;;5054941;28;20187;-34
2023/12/03 10:55:54;;;;;;;0.00;0.00;;;4.30;73.30;;;;;;5066177;28;20218;-35
2023/12/03 10:58:21;;;;;;;0.00;0.00;;;4.30;73.30;;;;;;5069308;28;20314;-35
2023/12/03 11:00:58;;;;;;;0.00;0.00;;;4.30;73.30;;;;;;5062882;28;20200;-34
2023/12/03 11:04:05;;;;;;;0.00;0.00;;;4.40;73.30;;;;;;5056200;28;20215;-35
2023/12/03 11:06:36;;;;;;;0.00;0.00;;;4.40;73.30;;;;;;5057388;28;20640;-34
2023/12/03 11:09:07;;;;;;;0.00;0.00;;;4.40;73.30;;;;;;5069314;28;20211;-35
2023/12/03 11:11:38;;;;;;;0.00;0.00;;;4.40;73.40;;;;;;5055026;28;20280;-34
2023/12/03 11:14:08;;;;;;;0.00;0.00;;;4.40;73.40;;;;;;5056207;28;20220;-35
2023/12/03 11:16:52;;;;;;;0.00;0.00;;;4.50;73.40;;;;;;5059899;28;20688;-34
2023/12/03 11:19:26;;;;;;;0.00;0.00;;;4.50;73.40;;;;;;5049121;28;20215;-34
2023/12/03 11:22:34;;;;;;;0.00;0.00;;;4.50;73.40;;;;;;5056629;28;20240;-34
2023/12/03 11:25:12;;;;;;;0.00;0.00;;;4.50;73.40;;;;;;5067909;28;20596;-34
2023/12/03 11:27:43;;;;;;;0.00;0.00;;;4.60;73.40;;;;;;5059534;28;20212;-35
2023/12/03 11:30:15;;;;;;;0.00;0.00;;;4.60;73.50;;;;;;5049421;28;20209;-34
2023/12/03 11:32:42;;;;;;;0.00;0.00;;;4.60;73.50;;;;;;5048448;28;20211;-34
2023/12/03 11:35:17;;;;;;;0.00;0.00;;;4.60;73.40;;;;;;5049249;28;20597;-35
2023/12/03 11:37:46;;;;;;;0.00;0.00;;;4.60;73.40;;;;;;5053928;28;20228;-35
2023/12/03 11:40:16;;;;;;;0.00;0.00;;;4.70;73.50;;;;;;5064218;28;20322;-35
2023/12/03 11:42:48;;;;;;;0.00;0.00;;;4.70;73.40;;;;;;5052184;28;20200;-35
2023/12/03 11:45:25;;;;;;;0.00;0.00;;;4.70;73.40;;;;;;5049904;28;20253;-35
2023/12/03 11:48:14;;;;;;;0.00;0.00;;;4.70;73.30;;;;;;5050611;28;20224;-35
2023/12/03 11:50:45;;;;;;;0.00;0.00;;;4.80;73.40;;;;;;5051002;28;20790;-34
2023/12/03 11:53:17;;;;;;;0.00;0.00;;;4.80;73.30;;;;;;5063834;28;20210;-35
2023/12/03 11:55:51;;;;;;;0.00;0.00;;;4.80;73.40;;;;;;5066303;28;20577;-35
2023/12/03 11:58:25;;;;;;;0.00;0.00;;;4.80;73.50;;;;;;5066552;28;20231;-34
2023/12/03 12:00:55;;;;;;;0.00;0.00;;;4.80;73.40;;;;;;5066101;28;20200;-35
2023/12/03 12:03:25;;;;;;;0.00;0.00;;;4.80;74.10;;;;;;5051846;28;20205;-35
2023/12/03 12:05:58;;;;;;;0.00;0.00;;;4.90;73.40;;;;;;5065358;28;20245;-35
2023/12/03 12:08:25;;;;;;;0.00;0.00;;;4.90;73.30;;;;;;5060325;28;20227;-35
2023/12/03 12:10:55;;;;;;;0.00;0.00;;;4.90;73.20;;;;;;5064676;28;20203;-35
2023/12/03 12:13:23;;;;;;;0.00;0.00;;;4.90;73.20;;;;;;5047931;28;20291;-35
2023/12/03 12:15:55;;;;;;;0.00;0.00;;;4.90;73.20;;;;;;5048803;28;20211;-35
2023/12/03 12:18:24;;;;;;;0.00;0.00;;;4.90;73.30;;;;;;5050696;28;20257;-34
2023/12/03 12:21:04;;;;;;;0.00;0.00;;;4.90;73.30;;;;;;5047717;28;20291;-34
2023/12/03 12:23:38;;;;;;;0.00;0.00;;;4.90;73.20;;;;;;5057385;28;20204;-34
2023/12/03 12:26:07;;;;;;;0.00;0.00;;;5.00;73.20;;;;;;5061665;28;20224;-34
2023/12/03 12:28:38;;;;;;;0.00;0.00;;;4.90;73.10;;;;;;5056663;28;20220;-35
2023/12/03 12:31:11;;;;;;;0.00;0.00;;;5.00;73.30;;;;;;5057166;28;20731;-35
2023/12/03 12:33:44;;;;;;;0.00;0.00;;;5.00;73.20;;;;;;5068069;28;20195;-35
2023/12/03 12:36:11;;;;;;;0.00;0.00;;;5.00;73.10;;;;;;5046917;28;20207;-34
2023/12/03 12:38:42;;;;;;;0.00;0.00;;;5.00;73.20;;;;;;5061367;28;20253;-35
2023/12/03 12:41:12;;;;;;;0.00;0.00;;;5.00;73.20;;;;;;5050655;28;20696;-34
2023/12/03 12:43:56;;;;;;;0.00;0.00;;;5.00;73.20;;;;;;5052851;28;20226;-35
2023/12/03 12:46:24;;;;;;;0.00;0.00;;;5.00;73.10;;;;;;5068463;28;20294;-34
2023/12/03 12:49:12;;;;;;;0.00;0.00;;;5.00;73.00;;;;;;5058629;28;20211;-34
2023/12/03 12:51:43;;;;;;;0.00;0.00;;;5.00;73.10;;;;;;5046752;28;20604;-34
2023/12/03 12:54:14;;;;;;;0.00;0.00;;;5.00;73.10;;;;;;5066875;28;20191;-34
2023/12/03 12:56:47;;;;;;;0.00;0.00;;;5.00;73.20;;;;;;5066033;28;20207;-34
2023/12/03 12:59:18;;;;;;;0.00;0.00;;;5.00;73.20;;;;;;5055263;28;20204;-34
2023/12/03 13:01:45;;;;;;;0.00;0.00;;;5.00;73.30;;;;;;5043958;28;20223;-35
2023/12/03 13:04:14;;;;;;;0.00;0.00;;;5.00;73.20;;;;;;5044731;28;20637;-34
2023/12/03 13:06:42;;;;;;;0.00;0.00;;;5.10;73.30;;;;;;5044488;28;20576;-34
2023/12/03 13:09:13;;;;;;;0.00;0.00;;;5.10;73.20;;;;;;5046817;28;20202;-34
2023/12/03 13:11:43;;;;;;;0.00;0.00;;;5.10;73.20;;;;;;5055133;28;20196;-34